sensor_id;sensor_type;location;lat;lon;timestamp;P1;durP1;ratioP1;P2;durP2;ratioP2
6406;SDS011;3236;51.022;6.818;2023-11-19T00:00:51;1.92;;;1.15;;
6406;SDS011;3236;51.022;6.818;2023-11-19T00:03:20;3.95;;;1.70;;
6406;SDS011;3236;51.022;6.818;2023-11-19T00:05:47;3.25;;;1.30;;
6406;SDS011;3236;51.022;6.818;2023-11-19T00:08:15;1.85;;;1.13;;
6406;SDS011;3236;51.022;6.818;2023-11-19T00:10:43;2.42;;;1.35;;
6406;SDS011;3236;51.022;6.818;2023-11-19T00:13:11;2.88;;;1.50;;
6406;SDS011;3236;51.022;6.818;2023-11-19T00:15:39;5.20;;;1.10;;
6406;SDS011;3236;51.022;6.818;2023-11-19T00:18:07;2.00;;;1.15;;
6406;SDS011;3236;51.022;6.818;2023-11-19T00:20:36;5.18;;;1.17;;
6406;SDS011;3236;51.022;6.818;2023-11-19T00:23:07;1.40;;;0.80;;
6406;SDS011;3236;51.022;6.818;2023-11-19T00:25:35;3.40;;;1.25;;
6406;SDS011;3236;51.022;6.818;2023-11-19T00:28:04;2.58;;;0.85;;
6406;SDS011;3236;51.022;6.818;2023-11-19T00:30:31;2.13;;;0.80;;
6406;SDS011;3236;51.022;6.818;2023-11-19T00:32:59;1.70;;;0.95;;
6406;SDS011;3236;51.022;6.818;2023-11-19T00:35:27;1.13;;;0.75;;
6406;SDS011;3236;51.022;6.818;2023-11-19T00:37:58;1.02;;;0.95;;
6406;SDS011;3236;51.022;6.818;2023-11-19T00:40:27;6.22;;;1.05;;
6406;SDS011;3236;51.022;6.818;2023-11-19T00:42:57;2.05;;;0.85;;
6406;SDS011;3236;51.022;6.818;2023-11-19T00:45:25;1.40;;;0.90;;
6406;SDS011;3236;51.022;6.818;2023-11-19T00:47:52;1.27;;;0.90;;
6406;SDS011;3236;51.022;6.818;2023-11-19T00:50:19;3.28;;;0.90;;
6406;SDS011;3236;51.022;6.818;2023-11-19T00:52:48;1.70;;;0.80;;
6406;SDS011;3236;51.022;6.818;2023-11-19T00:55:17;1.00;;;0.70;;
6406;SDS011;3236;51.022;6.818;2023-11-19T00:57:47;0.80;;;0.80;;
6406;SDS011;3236;51.022;6.818;2023-11-19T01:00:15;1.55;;;0.68;;
6406;SDS011;3236;51.022;6.818;2023-11-19T01:02:44;0.60;;;0.60;;
6406;SDS011;3236;51.022;6.818;2023-11-19T01:05:13;0.57;;;0.50;;
6406;SDS011;3236;51.022;6.818;2023-11-19T01:07:41;1.73;;;0.50;;
6406;SDS011;3236;51.022;6.818;2023-11-19T01:10:08;0.52;;;0.50;;
6406;SDS011;3236;51.022;6.818;2023-11-19T01:12:38;0.65;;;0.63;;
6406;SDS011;3236;51.022;6.818;2023-11-19T01:15:05;0.55;;;0.47;;
6406;SDS011;3236;51.022;6.818;2023-11-19T01:17:33;0.85;;;0.60;;
6406;SDS011;3236;51.022;6.818;2023-11-19T01:20:09;0.82;;;0.50;;
6406;SDS011;3236;51.022;6.818;2023-11-19T01:22:38;0.77;;;0.47;;
6406;SDS011;3236;51.022;6.818;2023-11-19T01:25:06;2.47;;;0.60;;
6406;SDS011;3236;51.022;6.818;2023-11-19T01:27:34;0.57;;;0.52;;
6406;SDS011;3236;51.022;6.818;2023-11-19T01:30:03;0.73;;;0.50;;
6406;SDS011;3236;51.022;6.818;2023-11-19T01:32:36;1.40;;;0.82;;
6406;SDS011;3236;51.022;6.818;2023-11-19T01:35:03;3.58;;;1.10;;
6406;SDS011;3236;51.022;6.818;2023-11-19T01:37:31;1.67;;;0.70;;
6406;SDS011;3236;51.022;6.818;2023-11-19T01:39:59;2.35;;;0.82;;
6406;SDS011;3236;51.022;6.818;2023-11-19T01:42:28;3.80;;;1.05;;
6406;SDS011;3236;51.022;6.818;2023-11-19T01:44:57;2.05;;;1.00;;
6406;SDS011;3236;51.022;6.818;2023-11-19T01:47:27;1.88;;;1.20;;
6406;SDS011;3236;51.022;6.818;2023-11-19T01:49:57;1.42;;;0.80;;
6406;SDS011;3236;51.022;6.818;2023-11-19T01:52:26;4.55;;;1.00;;
6406;SDS011;3236;51.022;6.818;2023-11-19T01:54:54;1.42;;;1.00;;
6406;SDS011;3236;51.022;6.818;2023-11-19T01:57:23;3.28;;;1.20;;
6406;SDS011;3236;51.022;6.818;2023-11-19T01:59:51;4.47;;;1.42;;
6406;SDS011;3236;51.022;6.818;2023-11-19T02:02:19;2.50;;;1.20;;
6406;SDS011;3236;51.022;6.818;2023-11-19T02:04:49;4.20;;;1.50;;
6406;SDS011;3236;51.022;6.818;2023-11-19T02:07:17;3.50;;;1.63;;
6406;SDS011;3236;51.022;6.818;2023-11-19T02:09:44;5.40;;;1.85;;
6406;SDS011;3236;51.022;6.818;2023-11-19T02:12:11;6.88;;;1.90;;
6406;SDS011;3236;51.022;6.818;2023-11-19T02:14:39;9.32;;;2.63;;
6406;SDS011;3236;51.022;6.818;2023-11-19T02:17:06;7.10;;;1.60;;
6406;SDS011;3236;51.022;6.818;2023-11-19T02:19:34;10.20;;;2.17;;
6406;SDS011;3236;51.022;6.818;2023-11-19T02:22:03;10.32;;;2.28;;
6406;SDS011;3236;51.022;6.818;2023-11-19T02:24:30;7.78;;;2.00;;
6406;SDS011;3236;51.022;6.818;2023-11-19T02:27:01;6.13;;;2.38;;
6406;SDS011;3236;51.022;6.818;2023-11-19T02:29:34;6.97;;;2.85;;
6406;SDS011;3236;51.022;6.818;2023-11-19T02:32:01;5.22;;;1.80;;
6406;SDS011;3236;51.022;6.818;2023-11-19T02:34:29;9.63;;;2.40;;
6406;SDS011;3236;51.022;6.818;2023-11-19T02:36:56;7.35;;;2.53;;
6406;SDS011;3236;51.022;6.818;2023-11-19T02:39:26;6.57;;;1.85;;
6406;SDS011;3236;51.022;6.818;2023-11-19T02:41:53;13.18;;;2.25;;
6406;SDS011;3236;51.022;6.818;2023-11-19T02:44:21;10.45;;;1.80;;
6406;SDS011;3236;51.022;6.818;2023-11-19T02:46:50;7.65;;;1.98;;
6406;SDS011;3236;51.022;6.818;2023-11-19T02:49:17;7.35;;;2.17;;
6406;SDS011;3236;51.022;6.818;2023-11-19T02:51:45;10.52;;;2.00;;
6406;SDS011;3236;51.022;6.818;2023-11-19T02:54:13;8.98;;;2.00;;
6406;SDS011;3236;51.022;6.818;2023-11-19T02:56:42;8.15;;;1.95;;
6406;SDS011;3236;51.022;6.818;2023-11-19T02:59:13;11.40;;;3.05;;
6406;SDS011;3236;51.022;6.818;2023-11-19T03:01:53;9.23;;;1.88;;
6406;SDS011;3236;51.022;6.818;2023-11-19T03:04:21;7.78;;;2.10;;
6406;SDS011;3236;51.022;6.818;2023-11-19T03:06:48;14.30;;;2.70;;
6406;SDS011;3236;51.022;6.818;2023-11-19T03:09:16;12.95;;;2.50;;
6406;SDS011;3236;51.022;6.818;2023-11-19T03:11:43;12.95;;;1.73;;
6406;SDS011;3236;51.022;6.818;2023-11-19T03:14:11;16.10;;;2.55;;
6406;SDS011;3236;51.022;6.818;2023-11-19T03:16:38;11.95;;;2.10;;
6406;SDS011;3236;51.022;6.818;2023-11-19T03:19:07;12.73;;;2.30;;
6406;SDS011;3236;51.022;6.818;2023-11-19T03:21:37;13.80;;;2.35;;
6406;SDS011;3236;51.022;6.818;2023-11-19T03:24:04;7.30;;;2.13;;
6406;SDS011;3236;51.022;6.818;2023-11-19T03:26:33;13.05;;;2.50;;
6406;SDS011;3236;51.022;6.818;2023-11-19T03:29:00;12.80;;;2.45;;
6406;SDS011;3236;51.022;6.818;2023-11-19T03:31:27;19.27;;;2.95;;
6406;SDS011;3236;51.022;6.818;2023-11-19T03:33:56;10.43;;;2.70;;
6406;SDS011;3236;51.022;6.818;2023-11-19T03:36:24;15.15;;;2.53;;
6406;SDS011;3236;51.022;6.818;2023-11-19T03:38:58;8.43;;;1.92;;
6406;SDS011;3236;51.022;6.818;2023-11-19T03:41:30;13.50;;;2.17;;
6406;SDS011;3236;51.022;6.818;2023-11-19T03:43:57;10.90;;;2.30;;
6406;SDS011;3236;51.022;6.818;2023-11-19T03:46:24;11.73;;;2.38;;
6406;SDS011;3236;51.022;6.818;2023-11-19T03:48:52;13.25;;;2.53;;
6406;SDS011;3236;51.022;6.818;2023-11-19T03:51:20;12.90;;;2.72;;
6406;SDS011;3236;51.022;6.818;2023-11-19T03:53:48;18.48;;;2.17;;
6406;SDS011;3236;51.022;6.818;2023-11-19T03:56:16;13.70;;;3.03;;
6406;SDS011;3236;51.022;6.818;2023-11-19T03:58:43;12.18;;;1.98;;
6406;SDS011;3236;51.022;6.818;2023-11-19T04:01:11;18.77;;;2.90;;
6406;SDS011;3236;51.022;6.818;2023-11-19T04:03:39;10.55;;;2.40;;
6406;SDS011;3236;51.022;6.818;2023-11-19T04:06:06;13.82;;;2.50;;
6406;SDS011;3236;51.022;6.818;2023-11-19T04:08:34;13.18;;;2.55;;
6406;SDS011;3236;51.022;6.818;2023-11-19T04:11:06;13.40;;;2.40;;
6406;SDS011;3236;51.022;6.818;2023-11-19T04:13:34;9.38;;;1.90;;
6406;SDS011;3236;51.022;6.818;2023-11-19T04:16:01;12.88;;;2.50;;
6406;SDS011;3236;51.022;6.818;2023-11-19T04:18:29;6.07;;;2.20;;
6406;SDS011;3236;51.022;6.818;2023-11-19T04:20:58;15.77;;;2.78;;
6406;SDS011;3236;51.022;6.818;2023-11-19T04:23:25;9.30;;;2.50;;
6406;SDS011;3236;51.022;6.818;2023-11-19T04:25:52;8.15;;;1.92;;
6406;SDS011;3236;51.022;6.818;2023-11-19T04:28:21;9.32;;;2.65;;
6406;SDS011;3236;51.022;6.818;2023-11-19T04:30:48;15.73;;;2.70;;
6406;SDS011;3236;51.022;6.818;2023-11-19T04:33:21;19.45;;;2.40;;
6406;SDS011;3236;51.022;6.818;2023-11-19T04:35:48;14.55;;;2.92;;
6406;SDS011;3236;51.022;6.818;2023-11-19T04:38:15;13.13;;;2.45;;
6406;SDS011;3236;51.022;6.818;2023-11-19T04:40:43;17.77;;;2.90;;
6406;SDS011;3236;51.022;6.818;2023-11-19T04:43:10;16.60;;;3.65;;
6406;SDS011;3236;51.022;6.818;2023-11-19T04:45:39;16.88;;;2.13;;
6406;SDS011;3236;51.022;6.818;2023-11-19T04:48:06;12.35;;;2.15;;
6406;SDS011;3236;51.022;6.818;2023-11-19T04:50:34;12.05;;;2.30;;
6406;SDS011;3236;51.022;6.818;2023-11-19T04:53:01;13.73;;;3.75;;
6406;SDS011;3236;51.022;6.818;2023-11-19T04:55:28;12.95;;;2.05;;
6406;SDS011;3236;51.022;6.818;2023-11-19T04:57:56;23.70;;;2.75;;
6406;SDS011;3236;51.022;6.818;2023-11-19T05:00:23;18.02;;;3.13;;
6406;SDS011;3236;51.022;6.818;2023-11-19T05:02:52;14.55;;;2.70;;
6406;SDS011;3236;51.022;6.818;2023-11-19T05:05:19;16.60;;;3.15;;
6406;SDS011;3236;51.022;6.818;2023-11-19T05:07:49;26.30;;;4.22;;
6406;SDS011;3236;51.022;6.818;2023-11-19T05:10:16;10.00;;;2.15;;
6406;SDS011;3236;51.022;6.818;2023-11-19T05:12:56;17.75;;;3.13;;
6406;SDS011;3236;51.022;6.818;2023-11-19T05:15:23;24.63;;;2.92;;
6406;SDS011;3236;51.022;6.818;2023-11-19T05:17:52;19.20;;;3.28;;
6406;SDS011;3236;51.022;6.818;2023-11-19T05:20:22;11.52;;;2.47;;
6406;SDS011;3236;51.022;6.818;2023-11-19T05:22:50;9.07;;;2.50;;
6406;SDS011;3236;51.022;6.818;2023-11-19T05:25:18;14.75;;;2.97;;
6406;SDS011;3236;51.022;6.818;2023-11-19T05:27:46;21.63;;;3.13;;
6406;SDS011;3236;51.022;6.818;2023-11-19T05:30:13;13.15;;;2.70;;
6406;SDS011;3236;51.022;6.818;2023-11-19T05:32:40;14.88;;;2.05;;
6406;SDS011;3236;51.022;6.818;2023-11-19T05:35:10;8.18;;;1.48;;
6406;SDS011;3236;51.022;6.818;2023-11-19T05:37:38;16.15;;;2.70;;
6406;SDS011;3236;51.022;6.818;2023-11-19T05:40:06;4.70;;;1.92;;
6406;SDS011;3236;51.022;6.818;2023-11-19T05:42:39;15.60;;;2.28;;
6406;SDS011;3236;51.022;6.818;2023-11-19T05:45:07;17.20;;;2.90;;
6406;SDS011;3236;51.022;6.818;2023-11-19T05:47:35;15.43;;;2.10;;
6406;SDS011;3236;51.022;6.818;2023-11-19T05:50:02;9.77;;;2.30;;
6406;SDS011;3236;51.022;6.818;2023-11-19T05:52:32;11.48;;;2.40;;
6406;SDS011;3236;51.022;6.818;2023-11-19T05:55:00;17.20;;;2.33;;
6406;SDS011;3236;51.022;6.818;2023-11-19T05:57:29;13.77;;;3.05;;
6406;SDS011;3236;51.022;6.818;2023-11-19T05:59:56;16.30;;;3.22;;
6406;SDS011;3236;51.022;6.818;2023-11-19T06:02:24;17.42;;;3.10;;
6406;SDS011;3236;51.022;6.818;2023-11-19T06:04:53;16.77;;;2.38;;
6406;SDS011;3236;51.022;6.818;2023-11-19T06:07:20;7.65;;;1.88;;
6406;SDS011;3236;51.022;6.818;2023-11-19T06:09:49;15.85;;;2.92;;
6406;SDS011;3236;51.022;6.818;2023-11-19T06:12:17;15.93;;;2.85;;
6406;SDS011;3236;51.022;6.818;2023-11-19T06:14:44;14.50;;;3.05;;
6406;SDS011;3236;51.022;6.818;2023-11-19T06:17:11;17.05;;;3.15;;
6406;SDS011;3236;51.022;6.818;2023-11-19T06:19:39;23.35;;;3.40;;
6406;SDS011;3236;51.022;6.818;2023-11-19T06:22:07;11.32;;;2.20;;
6406;SDS011;3236;51.022;6.818;2023-11-19T06:24:34;22.63;;;4.53;;
6406;SDS011;3236;51.022;6.818;2023-11-19T06:27:03;20.80;;;3.05;;
6406;SDS011;3236;51.022;6.818;2023-11-19T06:29:30;15.88;;;3.15;;
6406;SDS011;3236;51.022;6.818;2023-11-19T06:31:59;23.60;;;3.97;;
6406;SDS011;3236;51.022;6.818;2023-11-19T06:34:27;12.73;;;2.83;;
6406;SDS011;3236;51.022;6.818;2023-11-19T06:36:54;13.45;;;2.42;;
6406;SDS011;3236;51.022;6.818;2023-11-19T06:39:23;18.17;;;2.78;;
6406;SDS011;3236;51.022;6.818;2023-11-19T06:41:50;23.80;;;2.80;;
6406;SDS011;3236;51.022;6.818;2023-11-19T06:44:20;20.92;;;2.40;;
6406;SDS011;3236;51.022;6.818;2023-11-19T06:46:48;15.73;;;3.50;;
6406;SDS011;3236;51.022;6.818;2023-11-19T06:49:16;20.58;;;3.05;;
6406;SDS011;3236;51.022;6.818;2023-11-19T06:51:43;24.13;;;4.13;;
6406;SDS011;3236;51.022;6.818;2023-11-19T06:54:11;25.85;;;3.95;;
6406;SDS011;3236;51.022;6.818;2023-11-19T06:56:38;10.63;;;2.17;;
6406;SDS011;3236;51.022;6.818;2023-11-19T06:59:06;18.38;;;2.55;;
6406;SDS011;3236;51.022;6.818;2023-11-19T07:01:36;24.85;;;3.03;;
6406;SDS011;3236;51.022;6.818;2023-11-19T07:04:03;23.58;;;3.03;;
6406;SDS011;3236;51.022;6.818;2023-11-19T07:06:35;21.70;;;3.20;;
6406;SDS011;3236;51.022;6.818;2023-11-19T07:09:15;23.63;;;3.65;;
6406;SDS011;3236;51.022;6.818;2023-11-19T07:11:52;20.95;;;3.65;;
6406;SDS011;3236;51.022;6.818;2023-11-19T07:14:22;17.15;;;2.88;;
6406;SDS011;3236;51.022;6.818;2023-11-19T07:16:50;11.80;;;2.40;;
6406;SDS011;3236;51.022;6.818;2023-11-19T07:19:19;22.48;;;2.92;;
6406;SDS011;3236;51.022;6.818;2023-11-19T07:21:46;19.10;;;3.10;;
6406;SDS011;3236;51.022;6.818;2023-11-19T07:24:14;18.83;;;2.88;;
6406;SDS011;3236;51.022;6.818;2023-11-19T07:26:42;19.15;;;3.53;;
6406;SDS011;3236;51.022;6.818;2023-11-19T07:29:12;18.55;;;3.22;;
6406;SDS011;3236;51.022;6.818;2023-11-19T07:31:40;22.85;;;3.42;;
6406;SDS011;3236;51.022;6.818;2023-11-19T07:34:10;18.60;;;2.45;;
6406;SDS011;3236;51.022;6.818;2023-11-19T07:36:39;22.42;;;2.78;;
6406;SDS011;3236;51.022;6.818;2023-11-19T07:39:06;20.27;;;3.13;;
6406;SDS011;3236;51.022;6.818;2023-11-19T07:41:34;22.80;;;3.17;;
6406;SDS011;3236;51.022;6.818;2023-11-19T07:44:01;15.63;;;2.65;;
6406;SDS011;3236;51.022;6.818;2023-11-19T07:46:28;8.60;;;2.38;;
6406;SDS011;3236;51.022;6.818;2023-11-19T07:48:57;13.27;;;2.72;;
6406;SDS011;3236;51.022;6.818;2023-11-19T07:51:26;21.85;;;3.53;;
6406;SDS011;3236;51.022;6.818;2023-11-19T07:53:56;21.50;;;2.60;;
6406;SDS011;3236;51.022;6.818;2023-11-19T07:56:23;23.33;;;3.85;;
6406;SDS011;3236;51.022;6.818;2023-11-19T07:58:58;11.98;;;2.20;;
6406;SDS011;3236;51.022;6.818;2023-11-19T08:01:25;21.83;;;4.10;;
6406;SDS011;3236;51.022;6.818;2023-11-19T08:03:55;14.27;;;2.05;;
6406;SDS011;3236;51.022;6.818;2023-11-19T08:06:23;26.92;;;4.43;;
6406;SDS011;3236;51.022;6.818;2023-11-19T08:08:52;13.55;;;2.95;;
6406;SDS011;3236;51.022;6.818;2023-11-19T08:11:19;24.65;;;2.97;;
6406;SDS011;3236;51.022;6.818;2023-11-19T08:13:46;20.73;;;3.15;;
6406;SDS011;3236;51.022;6.818;2023-11-19T08:16:16;12.32;;;3.22;;
6406;SDS011;3236;51.022;6.818;2023-11-19T08:18:44;15.02;;;2.85;;
6406;SDS011;3236;51.022;6.818;2023-11-19T08:21:12;30.20;;;3.97;;
6406;SDS011;3236;51.022;6.818;2023-11-19T08:23:40;19.55;;;2.58;;
6406;SDS011;3236;51.022;6.818;2023-11-19T08:26:09;31.00;;;3.83;;
6406;SDS011;3236;51.022;6.818;2023-11-19T08:28:36;16.20;;;2.53;;
6406;SDS011;3236;51.022;6.818;2023-11-19T08:31:04;27.58;;;4.60;;
6406;SDS011;3236;51.022;6.818;2023-11-19T08:33:31;18.17;;;2.78;;
6406;SDS011;3236;51.022;6.818;2023-11-19T08:35:59;26.05;;;3.33;;
6406;SDS011;3236;51.022;6.818;2023-11-19T08:38:29;16.40;;;3.00;;
6406;SDS011;3236;51.022;6.818;2023-11-19T08:40:56;22.13;;;3.67;;
6406;SDS011;3236;51.022;6.818;2023-11-19T08:43:26;22.58;;;3.15;;
6406;SDS011;3236;51.022;6.818;2023-11-19T08:45:53;25.63;;;4.07;;
6406;SDS011;3236;51.022;6.818;2023-11-19T08:48:21;20.02;;;3.17;;
6406;SDS011;3236;51.022;6.818;2023-11-19T08:50:48;18.58;;;3.00;;
6406;SDS011;3236;51.022;6.818;2023-11-19T08:53:19;11.80;;;3.55;;
6406;SDS011;3236;51.022;6.818;2023-11-19T08:55:46;19.33;;;3.53;;
6406;SDS011;3236;51.022;6.818;2023-11-19T08:58:14;14.02;;;2.58;;
6406;SDS011;3236;51.022;6.818;2023-11-19T09:00:52;27.52;;;5.95;;
6406;SDS011;3236;51.022;6.818;2023-11-19T09:03:23;19.95;;;4.00;;
6406;SDS011;3236;51.022;6.818;2023-11-19T09:05:51;20.95;;;2.90;;
6406;SDS011;3236;51.022;6.818;2023-11-19T09:08:19;14.73;;;3.10;;
6406;SDS011;3236;51.022;6.818;2023-11-19T09:10:47;23.58;;;3.75;;
6406;SDS011;3236;51.022;6.818;2023-11-19T09:13:14;14.20;;;3.05;;
6406;SDS011;3236;51.022;6.818;2023-11-19T09:15:42;23.00;;;2.75;;
6406;SDS011;3236;51.022;6.818;2023-11-19T09:18:11;25.98;;;3.30;;
6406;SDS011;3236;51.022;6.818;2023-11-19T09:20:41;18.90;;;3.17;;
6406;SDS011;3236;51.022;6.818;2023-11-19T09:23:08;20.10;;;3.55;;
6406;SDS011;3236;51.022;6.818;2023-11-19T09:25:42;25.52;;;4.53;;
6406;SDS011;3236;51.022;6.818;2023-11-19T09:28:09;17.25;;;2.65;;
6406;SDS011;3236;51.022;6.818;2023-11-19T09:30:36;22.42;;;3.13;;
6406;SDS011;3236;51.022;6.818;2023-11-19T09:33:10;17.95;;;3.13;;
6406;SDS011;3236;51.022;6.818;2023-11-19T09:35:37;17.23;;;3.10;;
6406;SDS011;3236;51.022;6.818;2023-11-19T09:38:05;26.23;;;3.95;;
6406;SDS011;3236;51.022;6.818;2023-11-19T09:40:32;17.23;;;4.68;;
6406;SDS011;3236;51.022;6.818;2023-11-19T09:43:00;23.42;;;3.95;;
6406;SDS011;3236;51.022;6.818;2023-11-19T09:45:27;18.52;;;4.57;;
6406;SDS011;3236;51.022;6.818;2023-11-19T09:47:56;26.00;;;3.40;;
6406;SDS011;3236;51.022;6.818;2023-11-19T09:50:25;20.13;;;4.05;;
6406;SDS011;3236;51.022;6.818;2023-11-19T09:52:52;22.42;;;3.00;;
6406;SDS011;3236;51.022;6.818;2023-11-19T09:55:26;20.85;;;3.35;;
6406;SDS011;3236;51.022;6.818;2023-11-19T09:57:53;25.30;;;3.80;;
6406;SDS011;3236;51.022;6.818;2023-11-19T10:00:22;19.55;;;3.13;;
6406;SDS011;3236;51.022;6.818;2023-11-19T10:02:49;19.15;;;2.38;;
6406;SDS011;3236;51.022;6.818;2023-11-19T10:05:17;16.48;;;3.42;;
6406;SDS011;3236;51.022;6.818;2023-11-19T10:07:47;24.90;;;3.40;;
6406;SDS011;3236;51.022;6.818;2023-11-19T10:10:18;25.38;;;4.13;;
6406;SDS011;3236;51.022;6.818;2023-11-19T10:12:46;20.23;;;3.55;;
6406;SDS011;3236;51.022;6.818;2023-11-19T10:15:15;28.20;;;3.45;;
6406;SDS011;3236;51.022;6.818;2023-11-19T10:17:47;23.90;;;3.58;;
6406;SDS011;3236;51.022;6.818;2023-11-19T10:20:15;16.77;;;3.67;;
6406;SDS011;3236;51.022;6.818;2023-11-19T10:22:42;24.55;;;4.57;;
6406;SDS011;3236;51.022;6.818;2023-11-19T10:25:21;21.98;;;3.70;;
6406;SDS011;3236;51.022;6.818;2023-11-19T10:27:49;17.75;;;3.22;;
6406;SDS011;3236;51.022;6.818;2023-11-19T10:30:21;19.80;;;2.95;;
6406;SDS011;3236;51.022;6.818;2023-11-19T10:33:04;17.65;;;2.85;;
6406;SDS011;3236;51.022;6.818;2023-11-19T10:35:33;16.17;;;2.78;;
6406;SDS011;3236;51.022;6.818;2023-11-19T10:38:00;18.08;;;3.35;;
6406;SDS011;3236;51.022;6.818;2023-11-19T10:40:38;18.55;;;3.35;;
6406;SDS011;3236;51.022;6.818;2023-11-19T10:43:06;23.67;;;3.53;;
6406;SDS011;3236;51.022;6.818;2023-11-19T10:45:34;21.85;;;3.70;;
6406;SDS011;3236;51.022;6.818;2023-11-19T10:48:02;13.88;;;2.60;;
6406;SDS011;3236;51.022;6.818;2023-11-19T10:50:33;21.70;;;2.75;;
6406;SDS011;3236;51.022;6.818;2023-11-19T10:53:01;22.25;;;3.30;;
6406;SDS011;3236;51.022;6.818;2023-11-19T10:55:31;23.25;;;4.70;;
6406;SDS011;3236;51.022;6.818;2023-11-19T10:58:05;16.65;;;2.88;;
6406;SDS011;3236;51.022;6.818;2023-11-19T11:00:34;18.02;;;2.88;;
6406;SDS011;3236;51.022;6.818;2023-11-19T11:03:10;23.77;;;2.92;;
6406;SDS011;3236;51.022;6.818;2023-11-19T11:08:15;15.02;;;3.33;;
6406;SDS011;3236;51.022;6.818;2023-11-19T11:10:44;26.02;;;3.80;;
6406;SDS011;3236;51.022;6.818;2023-11-19T11:15:50;14.25;;;3.28;;
6406;SDS011;3236;51.022;6.818;2023-11-19T11:18:19;16.83;;;2.33;;
6406;SDS011;3236;51.022;6.818;2023-11-19T11:20:47;24.15;;;3.25;;
6406;SDS011;3236;51.022;6.818;2023-11-19T11:23:19;18.00;;;3.00;;
6406;SDS011;3236;51.022;6.818;2023-11-19T11:25:52;26.15;;;3.65;;
6406;SDS011;3236;51.022;6.818;2023-11-19T11:28:33;19.20;;;3.75;;
6406;SDS011;3236;51.022;6.818;2023-11-19T11:31:09;22.90;;;3.83;;
6406;SDS011;3236;51.022;6.818;2023-11-19T11:33:59;14.45;;;3.33;;
6406;SDS011;3236;51.022;6.818;2023-11-19T11:36:49;16.20;;;2.85;;
6406;SDS011;3236;51.022;6.818;2023-11-19T11:39:24;14.68;;;2.55;;
6406;SDS011;3236;51.022;6.818;2023-11-19T11:44:59;15.05;;;2.25;;
6406;SDS011;3236;51.022;6.818;2023-11-19T11:50:12;9.90;;;2.45;;
6406;SDS011;3236;51.022;6.818;2023-11-19T11:55:52;13.52;;;2.80;;
6406;SDS011;3236;51.022;6.818;2023-11-19T11:58:34;9.65;;;1.98;;
6406;SDS011;3236;51.022;6.818;2023-11-19T12:01:04;11.07;;;2.92;;
6406;SDS011;3236;51.022;6.818;2023-11-19T12:03:32;7.88;;;1.83;;
6406;SDS011;3236;51.022;6.818;2023-11-19T12:06:00;19.05;;;2.75;;
6406;SDS011;3236;51.022;6.818;2023-11-19T12:08:29;23.25;;;3.50;;
6406;SDS011;3236;51.022;6.818;2023-11-19T12:10:57;15.02;;;2.40;;
6406;SDS011;3236;51.022;6.818;2023-11-19T12:16:22;18.38;;;2.95;;
6406;SDS011;3236;51.022;6.818;2023-11-19T12:18:49;17.85;;;2.97;;
6406;SDS011;3236;51.022;6.818;2023-11-19T12:21:28;17.90;;;3.13;;
6406;SDS011;3236;51.022;6.818;2023-11-19T12:23:57;15.45;;;2.80;;
6406;SDS011;3236;51.022;6.818;2023-11-19T12:26:31;13.13;;;2.30;;
6406;SDS011;3236;51.022;6.818;2023-11-19T12:29:01;15.05;;;2.75;;
6406;SDS011;3236;51.022;6.818;2023-11-19T12:31:37;17.33;;;2.42;;
6406;SDS011;3236;51.022;6.818;2023-11-19T12:34:07;15.80;;;2.85;;
6406;SDS011;3236;51.022;6.818;2023-11-19T12:36:36;13.30;;;3.25;;
6406;SDS011;3236;51.022;6.818;2023-11-19T12:39:08;11.35;;;2.42;;
6406;SDS011;3236;51.022;6.818;2023-11-19T12:41:50;16.55;;;3.08;;
6406;SDS011;3236;51.022;6.818;2023-11-19T12:44:18;18.73;;;2.47;;
6406;SDS011;3236;51.022;6.818;2023-11-19T12:46:47;14.90;;;2.22;;
6406;SDS011;3236;51.022;6.818;2023-11-19T12:49:29;18.00;;;2.92;;
6406;SDS011;3236;51.022;6.818;2023-11-19T12:51:56;19.45;;;2.17;;
6406;SDS011;3236;51.022;6.818;2023-11-19T12:54:34;18.25;;;2.60;;
6406;SDS011;3236;51.022;6.818;2023-11-19T12:57:02;13.27;;;2.35;;
6406;SDS011;3236;51.022;6.818;2023-11-19T12:59:30;9.90;;;2.13;;
6406;SDS011;3236;51.022;6.818;2023-11-19T13:01:59;13.52;;;2.35;;
6406;SDS011;3236;51.022;6.818;2023-11-19T13:04:28;25.65;;;3.15;;
6406;SDS011;3236;51.022;6.818;2023-11-19T13:06:57;13.65;;;2.42;;
6406;SDS011;3236;51.022;6.818;2023-11-19T13:09:25;15.05;;;2.58;;
6406;SDS011;3236;51.022;6.818;2023-11-19T13:11:54;16.23;;;2.40;;
6406;SDS011;3236;51.022;6.818;2023-11-19T13:14:50;13.55;;;2.42;;
6406;SDS011;3236;51.022;6.818;2023-11-19T13:17:22;13.10;;;2.05;;
6406;SDS011;3236;51.022;6.818;2023-11-19T13:19:49;10.38;;;2.05;;
6406;SDS011;3236;51.022;6.818;2023-11-19T13:22:17;9.10;;;2.20;;
6406;SDS011;3236;51.022;6.818;2023-11-19T13:24:55;16.52;;;3.92;;
6406;SDS011;3236;51.022;6.818;2023-11-19T13:27:25;14.00;;;2.45;;
6406;SDS011;3236;51.022;6.818;2023-11-19T13:29:52;19.80;;;3.13;;
6406;SDS011;3236;51.022;6.818;2023-11-19T13:32:24;17.00;;;3.08;;
6406;SDS011;3236;51.022;6.818;2023-11-19T13:34:52;12.70;;;2.35;;
6406;SDS011;3236;51.022;6.818;2023-11-19T13:37:19;17.35;;;3.08;;
6406;SDS011;3236;51.022;6.818;2023-11-19T13:39:49;21.17;;;3.40;;
6406;SDS011;3236;51.022;6.818;2023-11-19T13:42:16;23.13;;;3.75;;
6406;SDS011;3236;51.022;6.818;2023-11-19T13:44:43;23.83;;;3.25;;
6406;SDS011;3236;51.022;6.818;2023-11-19T13:47:11;14.20;;;2.70;;
6406;SDS011;3236;51.022;6.818;2023-11-19T13:49:40;17.70;;;2.70;;
6406;SDS011;3236;51.022;6.818;2023-11-19T13:52:07;22.20;;;2.75;;
6406;SDS011;3236;51.022;6.818;2023-11-19T13:54:36;19.70;;;2.95;;
6406;SDS011;3236;51.022;6.818;2023-11-19T13:57:03;23.17;;;3.50;;
6406;SDS011;3236;51.022;6.818;2023-11-19T13:59:31;12.73;;;1.90;;
6406;SDS011;3236;51.022;6.818;2023-11-19T14:01:58;12.93;;;2.35;;
6406;SDS011;3236;51.022;6.818;2023-11-19T14:04:25;22.05;;;3.33;;
6406;SDS011;3236;51.022;6.818;2023-11-19T14:06:55;25.98;;;3.28;;
6406;SDS011;3236;51.022;6.818;2023-11-19T14:09:28;18.73;;;3.60;;
6406;SDS011;3236;51.022;6.818;2023-11-19T14:11:56;16.70;;;3.38;;
6406;SDS011;3236;51.022;6.818;2023-11-19T14:14:23;25.35;;;4.20;;
6406;SDS011;3236;51.022;6.818;2023-11-19T14:16:51;17.92;;;3.03;;
6406;SDS011;3236;51.022;6.818;2023-11-19T14:19:18;16.40;;;2.70;;
6406;SDS011;3236;51.022;6.818;2023-11-19T14:21:46;17.52;;;2.72;;
6406;SDS011;3236;51.022;6.818;2023-11-19T14:24:15;17.40;;;3.72;;
6406;SDS011;3236;51.022;6.818;2023-11-19T14:26:42;22.02;;;2.92;;
6406;SDS011;3236;51.022;6.818;2023-11-19T14:29:19;18.75;;;2.42;;
6406;SDS011;3236;51.022;6.818;2023-11-19T14:31:47;18.42;;;3.08;;
6406;SDS011;3236;51.022;6.818;2023-11-19T14:34:17;16.50;;;3.15;;
6406;SDS011;3236;51.022;6.818;2023-11-19T14:36:45;8.70;;;1.77;;
6406;SDS011;3236;51.022;6.818;2023-11-19T14:39:16;20.23;;;2.80;;
6406;SDS011;3236;51.022;6.818;2023-11-19T14:44:11;21.38;;;2.42;;
6406;SDS011;3236;51.022;6.818;2023-11-19T14:46:39;13.38;;;2.03;;
6406;SDS011;3236;51.022;6.818;2023-11-19T14:49:06;11.13;;;1.80;;
6406;SDS011;3236;51.022;6.818;2023-11-19T14:51:35;18.83;;;2.28;;
6406;SDS011;3236;51.022;6.818;2023-11-19T14:54:09;18.80;;;2.97;;
6406;SDS011;3236;51.022;6.818;2023-11-19T14:56:37;17.08;;;3.10;;
6406;SDS011;3236;51.022;6.818;2023-11-19T14:59:05;26.60;;;3.15;;
6406;SDS011;3236;51.022;6.818;2023-11-19T15:01:32;12.90;;;2.70;;
6406;SDS011;3236;51.022;6.818;2023-11-19T15:04:00;15.98;;;3.28;;
6406;SDS011;3236;51.022;6.818;2023-11-19T15:06:28;19.67;;;2.97;;
6406;SDS011;3236;51.022;6.818;2023-11-19T15:08:57;23.67;;;2.55;;
6406;SDS011;3236;51.022;6.818;2023-11-19T15:11:24;17.42;;;2.72;;
6406;SDS011;3236;51.022;6.818;2023-11-19T15:13:56;20.77;;;3.20;;
6406;SDS011;3236;51.022;6.818;2023-11-19T15:16:24;15.65;;;3.35;;
6406;SDS011;3236;51.022;6.818;2023-11-19T15:19:02;13.90;;;2.47;;
6406;SDS011;3236;51.022;6.818;2023-11-19T15:21:29;14.77;;;2.55;;
6406;SDS011;3236;51.022;6.818;2023-11-19T15:27:16;17.92;;;3.00;;
6406;SDS011;3236;51.022;6.818;2023-11-19T15:29:58;17.00;;;2.75;;
6406;SDS011;3236;51.022;6.818;2023-11-19T15:32:28;19.58;;;3.05;;
6406;SDS011;3236;51.022;6.818;2023-11-19T15:34:57;23.33;;;3.28;;
6406;SDS011;3236;51.022;6.818;2023-11-19T15:37:25;22.30;;;2.63;;
6406;SDS011;3236;51.022;6.818;2023-11-19T15:39:52;13.90;;;2.28;;